Terminal Aerodrome Forecast
Issued by NWS Pendleton, OR

Home | Current Version | Previous Version | Text Only | Print | Product List | Glossary On
Versions: 1 2 3 4 5 6 7 8 9 10 11 12 13 14 15 16 17 18
000
FTUS46 KPDT 181120
TAFPDT
TAF
KPDT 181120Z 1812/1912 18007KT P6SM FEW045 SCT060
     FM182100 27006KT P6SM BKN250
     FM190500 14006KT P6SM SCT250=

USA.gov is the U.S. government's official web portal to all federal, state and local government web resources and services.